createdAt,value
2018-11-13T00:01:59.536Z,62.60
2018-11-13T00:04:28.148Z,63.83
2018-11-13T00:06:56.803Z,63.87
2018-11-13T00:09:25.407Z,63.27
2018-11-13T00:11:54.075Z,60.07
2018-11-13T00:14:22.793Z,62.23
2018-11-13T00:16:51.439Z,64.67
2018-11-13T00:19:20.191Z,63.57
2018-11-13T00:21:48.828Z,64.60
2018-11-13T00:24:17.526Z,61.60
2018-11-13T00:26:50.272Z,62.73
2018-11-13T00:29:18.965Z,63.70
2018-11-13T00:31:47.667Z,58.87
2018-11-13T00:34:16.365Z,59.40
2018-11-13T00:36:45.069Z,59.27
2018-11-13T00:39:14.299Z,59.67
2018-11-13T00:41:42.903Z,61.70
2018-11-13T00:44:11.634Z,56.17
2018-11-13T00:46:40.313Z,53.13
2018-11-13T00:49:08.978Z,58.80
2018-11-13T00:51:38.188Z,57.27
2018-11-13T00:54:06.939Z,53.93
2018-11-13T00:56:35.597Z,52.23
2018-11-13T00:59:04.240Z,54.43
2018-11-13T01:01:32.928Z,56.37
2018-11-13T01:04:01.570Z,47.17
2018-11-13T01:06:30.284Z,57.20
2018-11-13T01:08:59.855Z,56.83
2018-11-13T01:11:28.602Z,54.23
2018-11-13T01:13:57.229Z,52.63
2018-11-13T01:16:25.836Z,50.93
2018-11-13T01:18:54.521Z,53.07
2018-11-13T01:21:23.213Z,56.33
2018-11-13T01:23:51.894Z,49.90
2018-11-13T01:26:20.577Z,56.17
2018-11-13T01:28:49.229Z,56.30
2018-11-13T01:31:17.861Z,55.60
2018-11-13T01:33:46.504Z,54.70
2018-11-13T01:36:15.200Z,55.97
2018-11-13T01:38:43.790Z,53.30
2018-11-13T01:41:12.496Z,48.40
2018-11-13T01:43:41.160Z,50.57
2018-11-13T01:46:09.927Z,52.73
2018-11-13T01:48:38.523Z,54.10
2018-11-13T01:51:07.253Z,54.70
2018-11-13T01:53:35.916Z,51.77
2018-11-13T01:56:05.099Z,52.40
2018-11-13T01:58:34.109Z,47.87
2018-11-13T02:01:02.465Z,51.87
2018-11-13T02:03:31.164Z,55.87
2018-11-13T02:05:59.843Z,56.13
2018-11-13T02:08:28.536Z,56.87
2018-11-13T02:10:57.283Z,52.27
2018-11-13T02:13:25.913Z,53.13
2018-11-13T02:15:54.572Z,52.70
2018-11-13T02:18:23.271Z,50.20
2018-11-13T02:20:51.967Z,54.23
2018-11-13T02:23:20.625Z,54.77
2018-11-13T02:25:49.255Z,54.13
2018-11-13T02:28:17.938Z,54.27
2018-11-13T02:30:46.612Z,53.37
2018-11-13T02:33:15.273Z,55.03
2018-11-13T02:35:44.040Z,48.77
2018-11-13T02:38:12.666Z,56.97
2018-11-13T02:40:41.347Z,54.40
2018-11-13T02:43:10.042Z,55.20
2018-11-13T02:45:38.701Z,55.83
2018-11-13T02:48:07.367Z,55.90
2018-11-13T02:50:35.952Z,50.93
2018-11-13T02:53:04.611Z,53.27
2018-11-13T02:55:33.215Z,54.83
2018-11-13T02:58:01.832Z,55.67
2018-11-13T03:00:30.504Z,54.73
2018-11-13T03:02:59.203Z,53.00
2018-11-13T03:05:27.879Z,55.97
2018-11-13T03:07:56.527Z,52.63
2018-11-13T03:10:25.138Z,55.30
2018-11-13T03:12:53.828Z,51.13
2018-11-13T03:15:22.490Z,56.03
2018-11-13T03:17:51.156Z,56.33
2018-11-13T03:20:20.314Z,53.27
2018-11-13T03:22:49.524Z,56.27
2018-11-13T03:25:19.629Z,50.57
2018-11-13T03:27:48.511Z,54.30
2018-11-13T03:30:25.435Z,55.73
2018-11-13T03:32:54.620Z,55.33
2018-11-13T03:35:23.286Z,54.70
2018-11-13T03:37:52.007Z,50.07
2018-11-13T03:40:20.628Z,51.90
2018-11-13T03:42:50.349Z,54.33
2018-11-13T03:45:19.263Z,55.30
2018-11-13T03:47:47.900Z,53.00
2018-11-13T03:50:17.887Z,52.20
2018-11-13T03:52:46.829Z,53.53
2018-11-13T03:55:16.032Z,54.03
2018-11-13T03:57:45.456Z,50.43
2018-11-13T04:00:15.647Z,53.47
2018-11-13T04:02:44.405Z,51.70
2018-11-13T04:05:14.273Z,52.77
2018-11-13T04:07:46.211Z,46.77
2018-11-13T04:10:16.143Z,53.10
2018-11-13T04:12:44.947Z,46.83
2018-11-13T04:15:14.971Z,49.83
2018-11-13T04:17:43.608Z,53.67
2018-11-13T04:20:14.153Z,46.27
2018-11-13T04:22:43.471Z,52.87
2018-11-13T04:25:12.165Z,51.53
2018-11-13T04:27:40.813Z,50.10
2018-11-13T04:30:13.287Z,45.30
2018-11-13T04:32:42.245Z,46.60
2018-11-13T04:35:12.392Z,46.13
2018-11-13T04:37:41.067Z,50.27
2018-11-13T04:40:12.617Z,48.97
2018-11-13T04:42:42.710Z,48.40
2018-11-13T04:45:13.079Z,49.67
2018-11-13T04:47:41.991Z,53.27
2018-11-13T04:50:12.700Z,48.57
2018-11-13T04:52:42.025Z,52.30
2018-11-13T04:55:11.300Z,51.20
2018-11-13T04:57:41.138Z,49.17
2018-11-13T05:00:11.604Z,51.33
2018-11-13T05:02:41.053Z,53.27
2018-11-13T05:05:10.847Z,49.97
2018-11-13T05:07:39.544Z,51.33
2018-11-13T05:10:10.447Z,52.80
2018-11-13T05:12:40.223Z,50.20
2018-11-13T05:15:09.076Z,53.63
2018-11-13T05:17:38.172Z,51.37
2018-11-13T05:20:07.712Z,52.93
2018-11-13T05:22:36.351Z,54.50
2018-11-13T05:25:07.168Z,55.60
2018-11-13T05:27:35.911Z,52.50
2018-11-13T05:30:05.638Z,46.97
2018-11-13T05:32:34.271Z,49.90
2018-11-13T05:35:02.925Z,52.93
2018-11-13T05:37:31.536Z,50.77
2018-11-13T05:40:00.223Z,49.67
2018-11-13T05:42:28.864Z,51.73
2018-11-13T05:44:57.475Z,50.77
2018-11-13T05:47:26.137Z,51.67
2018-11-13T05:49:54.881Z,52.90
2018-11-13T05:52:23.551Z,52.17
2018-11-13T05:54:52.236Z,52.53
2018-11-13T05:57:20.936Z,49.30
2018-11-13T05:59:49.633Z,49.07
2018-11-13T06:02:18.303Z,49.13
2018-11-13T06:04:46.934Z,48.70
2018-11-13T06:07:15.546Z,53.23
2018-11-13T06:09:44.344Z,48.80
2018-11-13T06:12:13.270Z,40.47
2018-11-13T06:14:41.907Z,43.43
2018-11-13T06:17:11.509Z,50.43
2018-11-13T06:19:40.235Z,51.53
2018-11-13T06:22:08.920Z,43.50
2018-11-13T06:24:37.683Z,49.20
2018-11-13T06:27:06.392Z,48.73
2018-11-13T06:29:35.060Z,39.30
2018-11-13T06:32:03.920Z,29.97
2018-11-13T06:34:32.584Z,47.57
2018-11-13T06:37:01.495Z,38.50
2018-11-13T06:39:30.179Z,48.70
2018-11-13T06:41:59.057Z,46.73
2018-11-13T06:44:27.649Z,37.23
2018-11-13T06:46:56.312Z,47.03
2018-11-13T06:49:24.950Z,43.27
2018-11-13T06:51:53.926Z,47.03
2018-11-13T06:54:34.086Z,40.27
2018-11-13T06:57:03.081Z,29.27
2018-11-13T06:59:31.712Z,46.50
2018-11-13T07:02:00.336Z,35.40
2018-11-13T07:04:29.036Z,42.60
2018-11-13T07:06:57.688Z,39.37
2018-11-13T07:09:26.607Z,45.10
2018-11-13T07:11:55.287Z,43.40
2018-11-13T07:14:24.076Z,46.00
2018-11-13T07:16:52.747Z,33.23
2018-11-13T07:19:21.416Z,36.90
2018-11-13T07:21:50.099Z,34.83
2018-11-13T07:24:18.695Z,41.53
2018-11-13T07:26:47.420Z,32.87
2018-11-13T07:29:16.162Z,40.77
2018-11-13T07:31:44.991Z,30.23
2018-11-13T07:34:13.662Z,39.37
2018-11-13T07:36:42.376Z,43.80
2018-11-13T07:39:11.771Z,34.60
2018-11-13T07:41:40.444Z,31.63
2018-11-13T07:44:09.104Z,26.33
2018-11-13T07:46:37.942Z,45.43
2018-11-13T07:49:06.635Z,42.50
2018-11-13T07:51:35.468Z,28.03
2018-11-13T07:54:04.303Z,24.07
2018-11-13T07:56:32.849Z,45.10
2018-11-13T07:59:01.507Z,32.57
2018-11-13T08:01:30.220Z,40.23
2018-11-13T08:03:58.860Z,38.70
2018-11-13T08:06:27.504Z,38.10
2018-11-13T08:08:56.275Z,24.53
2018-11-13T08:11:24.992Z,45.40
2018-11-13T08:13:53.630Z,39.63
2018-11-13T08:16:22.312Z,41.53
2018-11-13T08:18:51.078Z,30.00
2018-11-13T08:21:19.783Z,42.00
2018-11-13T08:24:05.994Z,33.17
2018-11-13T08:26:34.863Z,42.40
2018-11-13T08:29:03.822Z,41.57
2018-11-13T08:31:32.400Z,40.07
2018-11-13T08:34:01.088Z,40.97
2018-11-13T08:36:29.807Z,34.23
2018-11-13T08:38:58.504Z,38.60
2018-11-13T08:41:27.196Z,36.50
2018-11-13T08:43:55.897Z,41.67
2018-11-13T08:46:24.556Z,42.17
2018-11-13T08:48:53.264Z,41.70
2018-11-13T08:51:22.128Z,39.87
2018-11-13T08:53:50.826Z,36.37
2018-11-13T08:56:19.533Z,41.60
2018-11-13T08:58:48.222Z,40.60
2018-11-13T09:01:16.961Z,36.53
2018-11-13T09:03:45.675Z,41.43
2018-11-13T09:06:14.416Z,36.47
2018-11-13T09:08:43.183Z,38.00
2018-11-13T09:11:11.861Z,39.57
2018-11-13T09:13:40.630Z,38.40
2018-11-13T09:16:09.331Z,37.27
2018-11-13T09:18:38.132Z,38.20
2018-11-13T09:21:06.922Z,33.30
2018-11-13T09:23:35.739Z,40.83
2018-11-13T09:26:04.468Z,35.77
2018-11-13T09:28:33.164Z,38.50
2018-11-13T09:31:01.993Z,39.43
2018-11-13T09:33:30.562Z,32.97
2018-11-13T09:35:59.185Z,36.33
2018-11-13T09:38:27.860Z,29.90
2018-11-13T09:40:56.579Z,33.77
2018-11-13T09:43:25.286Z,30.83
2018-11-13T09:45:53.987Z,42.07
2018-11-13T09:48:22.743Z,31.73
2018-11-13T09:50:51.509Z,37.93
2018-11-13T09:53:20.092Z,36.80
2018-11-13T09:55:48.812Z,38.80
2018-11-13T09:58:17.527Z,36.63
2018-11-13T10:00:46.286Z,31.07
2018-11-13T10:03:15.547Z,26.67
2018-11-13T10:05:43.721Z,36.00
2018-11-13T10:08:12.356Z,33.33
2018-11-13T10:10:41.052Z,40.10
2018-11-13T10:13:09.700Z,39.60
2018-11-13T10:15:38.360Z,41.00
2018-11-13T10:18:07.267Z,38.23
2018-11-13T10:20:35.752Z,34.17
2018-11-13T10:23:04.863Z,37.13
2018-11-13T10:25:33.524Z,39.43
2018-11-13T10:28:02.156Z,35.23
2018-11-13T10:30:30.818Z,39.57
2018-11-13T10:32:59.433Z,36.10
2018-11-13T10:36:52.722Z,34.83
2018-11-13T10:39:21.704Z,35.53
2018-11-13T10:41:50.448Z,39.63
2018-11-13T10:44:19.401Z,34.40
2018-11-13T10:46:48.063Z,36.77
2018-11-13T10:49:16.877Z,18.70
2018-11-13T10:51:45.469Z,37.50
2018-11-13T10:54:14.357Z,34.57
2018-11-13T10:56:43.021Z,36.53
2018-11-13T10:59:11.788Z,38.80
2018-11-13T11:01:45.671Z,39.80
2018-11-13T11:04:19.531Z,32.93
2018-11-13T11:06:48.111Z,37.17
2018-11-13T11:09:16.760Z,34.27
2018-11-13T11:11:45.396Z,38.20
2018-11-13T11:14:14.041Z,37.90
2018-11-13T11:16:42.916Z,35.50
2018-11-13T11:19:11.838Z,38.63
2018-11-13T11:21:40.526Z,36.97
2018-11-13T11:24:09.291Z,39.73
2018-11-13T11:26:37.924Z,37.70
2018-11-13T11:29:06.802Z,37.40
2018-11-13T11:31:35.467Z,37.20
2018-11-13T11:34:04.156Z,36.47
2018-11-13T11:36:32.804Z,32.67
2018-11-13T11:39:01.788Z,37.63
2018-11-13T11:41:30.271Z,37.43
2018-11-13T11:43:59.100Z,36.77
2018-11-13T11:46:27.796Z,36.63
2018-11-13T11:48:56.468Z,37.53
2018-11-13T11:51:25.147Z,38.50
2018-11-13T11:53:53.845Z,35.33
2018-11-13T11:56:22.515Z,40.53
2018-11-13T11:58:51.214Z,38.93
2018-11-13T12:01:19.895Z,42.63
2018-11-13T12:03:48.612Z,36.07
2018-11-13T12:06:17.256Z,36.70
2018-11-13T12:08:45.967Z,42.33
2018-11-13T12:11:14.628Z,43.37
2018-11-13T12:13:43.304Z,40.20
2018-11-13T12:16:12.244Z,39.97
2018-11-13T12:18:41.236Z,39.70
2018-11-13T12:21:09.955Z,35.73
2018-11-13T12:23:38.684Z,36.10
2018-11-13T12:26:07.382Z,41.90
2018-11-13T12:28:36.171Z,40.53
2018-11-13T12:31:05.280Z,39.07
2018-11-13T12:33:33.987Z,40.13
2018-11-13T12:36:02.812Z,42.60
2018-11-13T12:38:31.492Z,43.97
2018-11-13T12:41:00.284Z,42.00
2018-11-13T12:43:28.864Z,45.13
2018-11-13T12:45:57.545Z,45.63
2018-11-13T12:48:26.361Z,43.93
2018-11-13T12:50:57.959Z,42.93
2018-11-13T12:53:26.718Z,43.17
2018-11-13T12:55:55.401Z,40.17
2018-11-13T12:58:24.064Z,41.17
2018-11-13T13:00:52.755Z,39.87
2018-11-13T13:03:21.556Z,40.17
2018-11-13T13:05:50.343Z,39.07
2018-11-13T13:08:19.009Z,41.90
2018-11-13T13:10:47.718Z,42.53
2018-11-13T13:13:16.364Z,38.83
2018-11-13T13:15:45.099Z,41.53
2018-11-13T13:18:13.743Z,40.57
2018-11-13T13:20:42.565Z,41.10
2018-11-13T13:23:11.259Z,39.67
2018-11-13T13:25:39.902Z,42.23
2018-11-13T13:28:08.633Z,42.10
2018-11-13T13:30:37.256Z,41.50
2018-11-13T13:33:06.331Z,41.80
2018-11-13T13:35:45.929Z,44.03
2018-11-13T13:38:14.793Z,40.90
2018-11-13T13:47:44.101Z,44.83
2018-11-13T13:50:12.823Z,43.20
2018-11-13T13:52:41.519Z,41.73
2018-11-13T13:55:10.232Z,43.63
2018-11-13T13:57:38.880Z,43.87
2018-11-13T14:00:09.880Z,43.43
2018-11-13T14:02:38.415Z,40.17
2018-11-13T14:05:07.496Z,38.73
2018-11-13T14:07:36.204Z,45.00
2018-11-13T14:10:05.363Z,44.87
2018-11-13T14:12:34.035Z,41.50
2018-11-13T14:15:02.805Z,43.93
2018-11-13T14:17:31.603Z,42.63
2018-11-13T14:20:00.345Z,44.73
2018-11-13T14:22:29.212Z,44.17
2018-11-13T14:24:57.895Z,44.60
2018-11-13T14:27:26.593Z,44.53
2018-11-13T14:29:55.391Z,42.33
2018-11-13T14:32:24.102Z,44.93
2018-11-13T14:34:52.820Z,44.53
2018-11-13T14:37:21.514Z,45.40
2018-11-13T14:39:50.513Z,43.33
2018-11-13T14:42:19.423Z,45.60
2018-11-13T14:44:48.218Z,42.67
2018-11-13T14:47:16.916Z,46.23
2018-11-13T14:49:45.569Z,44.33
2018-11-13T14:52:14.268Z,45.07
2018-11-13T14:54:42.993Z,46.87
2018-11-13T14:57:11.649Z,46.97
2018-11-13T14:59:40.272Z,46.33
2018-11-13T15:02:09.039Z,48.50
2018-11-13T15:04:37.673Z,49.73
2018-11-13T15:07:06.408Z,47.97
2018-11-13T15:09:35.080Z,46.03
2018-11-13T15:12:03.765Z,47.73
2018-11-13T15:14:32.389Z,47.77
2018-11-13T15:17:01.117Z,50.37
2018-11-13T15:19:29.800Z,48.33
2018-11-13T15:21:58.504Z,46.47
2018-11-13T15:24:27.240Z,48.20
2018-11-13T15:26:55.928Z,47.80
2018-11-13T15:29:24.662Z,48.07
2018-11-13T15:31:53.296Z,47.17
2018-11-13T15:34:21.989Z,49.13
2018-11-13T15:36:50.782Z,51.43
2018-11-13T15:39:19.353Z,47.83
2018-11-13T15:41:48.072Z,48.30
2018-11-13T15:44:16.768Z,49.97
2018-11-13T15:46:45.417Z,49.17
2018-11-13T15:49:14.100Z,52.50
2018-11-13T15:51:43.035Z,54.77
2018-11-13T15:54:11.672Z,51.23
2018-11-13T15:56:40.392Z,52.23
2018-11-13T15:59:09.138Z,49.53
2018-11-13T16:01:37.844Z,57.07
2018-11-13T16:04:06.537Z,54.33
2018-11-13T16:06:35.300Z,47.40
2018-11-13T16:09:05.518Z,50.90
2018-11-13T16:11:34.263Z,51.30
2018-11-13T16:14:04.816Z,53.87
2018-11-13T16:16:31.841Z,54.80
2018-11-13T16:19:00.577Z,51.63
2018-11-13T16:21:29.300Z,52.33
2018-11-13T16:23:57.971Z,53.17
2018-11-13T16:26:26.631Z,52.87
2018-11-13T16:28:55.373Z,57.40
2018-11-13T16:31:24.031Z,52.60
2018-11-13T16:33:52.717Z,69.53
2018-11-13T16:36:21.482Z,57.60
2018-11-13T16:38:50.055Z,55.90
2018-11-13T16:41:18.834Z,55.57
2018-11-13T16:43:47.526Z,55.47
2018-11-13T16:46:16.338Z,59.43
2018-11-13T16:48:45.024Z,55.60
2018-11-13T16:51:13.786Z,55.97
2018-11-13T16:53:47.916Z,56.47
2018-11-13T16:56:16.796Z,54.67
2018-11-13T16:58:45.623Z,56.63
2018-11-13T17:01:14.405Z,56.97
2018-11-13T17:03:43.100Z,54.27
2018-11-13T17:06:11.769Z,56.30
2018-11-13T17:08:40.435Z,55.60
2018-11-13T17:11:09.253Z,54.90
2018-11-13T17:13:37.953Z,58.53
2018-11-13T17:16:06.622Z,60.47
2018-11-13T17:18:35.292Z,58.60
2018-11-13T17:21:04.150Z,56.50
2018-11-13T17:24:05.595Z,59.97
2018-11-13T17:26:34.335Z,60.73
2018-11-13T17:29:03.096Z,58.80
2018-11-13T17:31:31.968Z,60.37
2018-11-13T17:34:00.543Z,64.77
2018-11-13T17:36:29.306Z,56.57
2018-11-13T17:38:58.005Z,66.60
2018-11-13T17:41:26.727Z,69.13
2018-11-13T17:43:55.469Z,62.20
2018-11-13T17:46:24.197Z,63.03
2018-11-13T17:48:53.636Z,72.00
2018-11-13T17:51:22.529Z,64.10
2018-11-13T17:53:51.316Z,71.90
2018-11-13T17:56:20.008Z,66.13
2018-11-13T17:58:48.836Z,58.10
2018-11-13T18:01:17.567Z,66.07
2018-11-13T18:03:46.525Z,55.73
2018-11-13T18:06:15.485Z,58.00
2018-11-13T18:08:44.305Z,56.80
2018-11-13T18:11:13.279Z,54.73
2018-11-13T18:13:42.016Z,52.07
2018-11-13T18:16:11.105Z,59.73
2018-11-13T18:18:39.834Z,53.23
2018-11-13T18:21:08.590Z,54.90
2018-11-13T18:23:37.627Z,53.63
2018-11-13T18:26:06.663Z,48.47
2018-11-13T18:28:35.596Z,45.97
2018-11-13T18:31:04.829Z,43.30
2018-11-13T18:33:33.828Z,42.20
2018-11-13T18:36:02.712Z,44.43
2018-11-13T18:38:32.535Z,37.80
2018-11-13T18:41:01.292Z,45.83
2018-11-13T18:43:30.242Z,36.03
2018-11-13T18:45:59.214Z,33.57
2018-11-13T18:48:28.442Z,36.60
2018-11-13T18:50:57.785Z,44.43
2018-11-13T18:53:27.280Z,35.87
2018-11-13T18:55:56.395Z,34.37
2018-11-13T18:58:25.753Z,38.50
2018-11-13T19:00:56.709Z,36.30
2018-11-13T19:03:25.704Z,33.93
2018-11-13T19:05:55.300Z,34.43
2018-11-13T19:08:24.587Z,41.57
2018-11-13T19:10:54.233Z,30.17
2018-11-13T19:13:26.270Z,32.47
2018-11-13T19:15:58.442Z,34.73
2018-11-13T19:18:28.090Z,36.73
2018-11-13T19:20:58.253Z,33.67
2018-11-13T19:23:27.777Z,39.30
2018-11-13T19:25:57.450Z,41.07
2018-11-13T19:28:27.846Z,42.63
2018-11-13T19:30:57.246Z,33.70
2018-11-13T19:33:26.691Z,31.40
2018-11-13T19:35:57.049Z,33.33
2018-11-13T19:38:26.623Z,37.57
2018-11-13T19:40:55.964Z,36.97
2018-11-13T19:43:25.389Z,34.17
2018-11-13T19:45:54.641Z,36.10
2018-11-13T19:48:24.321Z,33.67
2018-11-13T19:50:53.776Z,37.50
2018-11-13T19:53:23.677Z,33.17
2018-11-13T19:55:54.954Z,40.43
2018-11-13T19:58:24.136Z,38.37
2018-11-13T20:00:53.667Z,38.20
2018-11-13T20:03:22.591Z,31.17
2018-11-13T20:05:51.616Z,26.83
2018-11-13T20:08:20.686Z,32.43
2018-11-13T20:10:50.036Z,31.40
2018-11-13T20:13:18.713Z,32.30
2018-11-13T20:15:47.793Z,31.43
2018-11-13T20:18:17.110Z,30.37
2018-11-13T20:20:45.816Z,34.77
2018-11-13T20:23:14.924Z,27.67
2018-11-13T20:25:43.765Z,30.30
2018-11-13T20:28:12.628Z,32.60
2018-11-13T20:30:42.583Z,31.63
2018-11-13T20:33:11.376Z,27.23
2018-11-13T20:35:40.648Z,30.00
2018-11-13T20:38:09.509Z,27.30
2018-11-13T20:40:38.888Z,25.17
2018-11-13T20:43:09.712Z,31.07
2018-11-13T20:45:38.592Z,26.23
2018-11-13T20:48:07.572Z,28.87
2018-11-13T20:50:36.270Z,13.93
2018-11-13T20:53:05.047Z,26.87
2018-11-13T20:55:33.766Z,26.13
2018-11-13T20:58:02.742Z,26.90
2018-11-13T21:00:33.056Z,27.70
2018-11-13T21:03:01.792Z,23.20
2018-11-13T21:05:30.607Z,25.80
2018-11-13T21:07:59.689Z,23.33
2018-11-13T21:10:30.495Z,23.80
2018-11-13T21:12:59.591Z,21.90
2018-11-13T21:15:28.359Z,19.57
2018-11-13T21:17:57.100Z,10.53
2018-11-13T21:20:26.164Z,20.70
2018-11-13T21:22:54.618Z,12.07
2018-11-13T21:25:24.486Z,24.60
2018-11-13T21:27:55.171Z,14.53
2018-11-13T21:30:24.106Z,13.30
2018-11-13T21:32:53.408Z,22.43
2018-11-13T21:35:22.195Z,10.83
2018-11-13T21:37:53.325Z,15.30
2018-11-13T21:40:24.424Z,17.67
2018-11-13T21:42:53.766Z,22.30
2018-11-13T21:45:23.432Z,24.70
2018-11-13T21:47:52.156Z,20.93
2018-11-13T21:50:22.716Z,27.03
2018-11-13T21:52:51.675Z,11.60
2018-11-13T21:55:21.524Z,16.70
2018-11-13T21:57:50.276Z,19.47
2018-11-13T22:00:23.082Z,23.93
2018-11-13T22:02:56.360Z,16.97
2018-11-13T22:05:26.224Z,11.50
2018-11-13T22:07:55.009Z,26.60
2018-11-13T22:10:24.006Z,20.60
2018-11-13T22:12:52.861Z,14.93
2018-11-13T22:15:23.270Z,20.87
2018-11-13T22:17:51.653Z,25.63
2018-11-13T22:20:21.058Z,24.40
2018-11-13T22:22:51.270Z,28.30
2018-11-13T22:25:21.673Z,26.17
2018-11-13T22:27:51.458Z,16.70
2018-11-13T22:30:21.531Z,30.03
2018-11-13T22:32:50.324Z,26.93
2018-11-13T22:35:19.744Z,26.73
2018-11-13T22:37:48.391Z,27.30
2018-11-13T22:40:18.523Z,29.67
2018-11-13T22:42:47.431Z,27.87
2018-11-13T22:45:18.759Z,24.83
2018-11-13T22:47:47.662Z,25.73
2018-11-13T22:50:21.564Z,23.27
2018-11-13T22:52:50.536Z,24.07
2018-11-13T22:55:19.638Z,26.00
2018-11-13T22:57:49.231Z,23.93
2018-11-13T23:00:21.158Z,19.90
2018-11-13T23:02:51.244Z,23.63
2018-11-13T23:05:20.105Z,26.77
2018-11-13T23:07:48.919Z,26.77
2018-11-13T23:10:17.879Z,24.93
2018-11-13T23:12:46.760Z,26.03
2018-11-13T23:15:17.196Z,13.87
2018-11-13T23:17:45.908Z,24.30
2018-11-13T23:20:15.936Z,14.47
2018-11-13T23:22:44.601Z,25.90
2018-11-13T23:25:14.440Z,23.80
2018-11-13T23:27:44.010Z,19.73
2018-11-13T23:30:19.279Z,26.63
2018-11-13T23:32:48.125Z,23.30
2018-11-13T23:35:17.083Z,23.50
2018-11-13T23:37:47.011Z,22.20
2018-11-13T23:40:17.794Z,21.30
2018-11-13T23:42:47.008Z,25.90
2018-11-13T23:45:16.580Z,20.23
2018-11-13T23:47:45.492Z,22.77
2018-11-13T23:50:14.353Z,23.30
2018-11-13T23:52:43.368Z,28.63
2018-11-13T23:55:12.946Z,21.73
2018-11-13T23:57:42.441Z,22.63
